sensor_id;sensor_type;location;lat;lon;timestamp;P1;durP1;ratioP1;P2;durP2;ratioP2
3307;SDS011;1666;48.898;9.182;2024-03-08T09:13:38;26.58;;;15.68;;
3307;SDS011;1666;48.898;9.182;2024-03-08T09:16:07;26.00;;;16.42;;
3307;SDS011;1666;48.898;9.182;2024-03-08T09:18:37;25.63;;;15.45;;
3307;SDS011;1666;48.898;9.182;2024-03-08T09:21:08;25.55;;;15.70;;
3307;SDS011;1666;48.898;9.182;2024-03-08T09:23:39;22.05;;;14.25;;
3307;SDS011;1666;48.898;9.182;2024-03-08T09:26:11;27.02;;;15.52;;
3307;SDS011;1666;48.898;9.182;2024-03-08T09:28:56;27.02;;;15.07;;
3307;SDS011;1666;48.898;9.182;2024-03-08T09:31:26;27.90;;;16.40;;
3307;SDS011;1666;48.898;9.182;2024-03-08T09:33:57;25.10;;;14.70;;
3307;SDS011;1666;48.898;9.182;2024-03-08T09:36:28;26.83;;;15.70;;
3307;SDS011;1666;48.898;9.182;2024-03-08T09:38:59;25.27;;;15.93;;
3307;SDS011;1666;48.898;9.182;2024-03-08T09:41:30;26.05;;;14.88;;
3307;SDS011;1666;48.898;9.182;2024-03-08T09:44:04;27.83;;;15.32;;
3307;SDS011;1666;48.898;9.182;2024-03-08T09:46:35;22.42;;;13.63;;
3307;SDS011;1666;48.898;9.182;2024-03-08T09:49:05;28.90;;;16.90;;
3307;SDS011;1666;48.898;9.182;2024-03-08T09:51:38;24.15;;;14.63;;
3307;SDS011;1666;48.898;9.182;2024-03-08T09:54:09;24.08;;;15.80;;
3307;SDS011;1666;48.898;9.182;2024-03-08T09:56:46;28.17;;;16.20;;
3307;SDS011;1666;48.898;9.182;2024-03-08T09:59:20;24.15;;;15.75;;
3307;SDS011;1666;48.898;9.182;2024-03-08T10:02:12;22.63;;;14.82;;
3307;SDS011;1666;48.898;9.182;2024-03-08T10:04:45;27.92;;;15.45;;
3307;SDS011;1666;48.898;9.182;2024-03-08T10:07:20;25.90;;;15.05;;
3307;SDS011;1666;48.898;9.182;2024-03-08T10:09:51;24.60;;;14.52;;
3307;SDS011;1666;48.898;9.182;2024-03-08T10:12:21;27.40;;;15.38;;
3307;SDS011;1666;48.898;9.182;2024-03-08T10:14:55;26.83;;;16.05;;
3307;SDS011;1666;48.898;9.182;2024-03-08T10:17:25;26.80;;;15.25;;
3307;SDS011;1666;48.898;9.182;2024-03-08T10:19:59;24.98;;;14.38;;
3307;SDS011;1666;48.898;9.182;2024-03-08T10:22:31;29.15;;;15.68;;
3307;SDS011;1666;48.898;9.182;2024-03-08T10:25:02;25.92;;;15.38;;
3307;SDS011;1666;48.898;9.182;2024-03-08T10:27:33;26.20;;;15.30;;
3307;SDS011;1666;48.898;9.182;2024-03-08T10:30:08;23.92;;;15.45;;
3307;SDS011;1666;48.898;9.182;2024-03-08T10:32:42;28.80;;;16.30;;
3307;SDS011;1666;48.898;9.182;2024-03-08T10:35:14;21.33;;;14.40;;
3307;SDS011;1666;48.898;9.182;2024-03-08T10:37:49;26.58;;;15.20;;
3307;SDS011;1666;48.898;9.182;2024-03-08T10:40:25;26.35;;;15.73;;
3307;SDS011;1666;48.898;9.182;2024-03-08T10:42:57;28.00;;;16.08;;
3307;SDS011;1666;48.898;9.182;2024-03-08T10:45:34;32.05;;;15.93;;
3307;SDS011;1666;48.898;9.182;2024-03-08T10:48:17;27.48;;;15.68;;
3307;SDS011;1666;48.898;9.182;2024-03-08T10:50:54;24.42;;;15.00;;
3307;SDS011;1666;48.898;9.182;2024-03-08T10:53:26;24.77;;;15.70;;
3307;SDS011;1666;48.898;9.182;2024-03-08T10:56:01;26.92;;;16.02;;
3307;SDS011;1666;48.898;9.182;2024-03-08T10:58:34;25.55;;;15.50;;
3307;SDS011;1666;48.898;9.182;2024-03-08T11:01:08;25.05;;;14.77;;
3307;SDS011;1666;48.898;9.182;2024-03-08T11:03:44;23.20;;;14.75;;
3307;SDS011;1666;48.898;9.182;2024-03-08T11:06:18;26.35;;;15.98;;
3307;SDS011;1666;48.898;9.182;2024-03-08T11:08:53;24.15;;;15.45;;
3307;SDS011;1666;48.898;9.182;2024-03-08T11:11:25;27.75;;;16.10;;
3307;SDS011;1666;48.898;9.182;2024-03-08T11:14:00;25.15;;;15.70;;
3307;SDS011;1666;48.898;9.182;2024-03-08T11:16:41;25.95;;;16.65;;
3307;SDS011;1666;48.898;9.182;2024-03-08T11:19:24;24.98;;;15.50;;
3307;SDS011;1666;48.898;9.182;2024-03-08T11:22:02;26.30;;;16.23;;
3307;SDS011;1666;48.898;9.182;2024-03-08T11:24:38;29.83;;;16.30;;
3307;SDS011;1666;48.898;9.182;2024-03-08T11:27:12;26.85;;;16.60;;
3307;SDS011;1666;48.898;9.182;2024-03-08T11:29:42;26.83;;;17.10;;
3307;SDS011;1666;48.898;9.182;2024-03-08T11:32:15;28.15;;;16.40;;
3307;SDS011;1666;48.898;9.182;2024-03-08T11:34:49;23.48;;;15.30;;
3307;SDS011;1666;48.898;9.182;2024-03-08T11:37:21;26.15;;;15.73;;
3307;SDS011;1666;48.898;9.182;2024-03-08T11:39:52;24.83;;;15.20;;
3307;SDS011;1666;48.898;9.182;2024-03-08T11:42:28;27.95;;;16.02;;
3307;SDS011;1666;48.898;9.182;2024-03-08T11:45:07;29.98;;;16.15;;
3307;SDS011;1666;48.898;9.182;2024-03-08T11:47:40;26.88;;;16.25;;
3307;SDS011;1666;48.898;9.182;2024-03-08T11:50:13;26.63;;;16.15;;
3307;SDS011;1666;48.898;9.182;2024-03-08T11:52:46;31.05;;;18.55;;
3307;SDS011;1666;48.898;9.182;2024-03-08T11:55:16;27.30;;;17.30;;
3307;SDS011;1666;48.898;9.182;2024-03-08T11:57:47;24.80;;;16.40;;
3307;SDS011;1666;48.898;9.182;2024-03-08T12:00:18;27.13;;;16.88;;
3307;SDS011;1666;48.898;9.182;2024-03-08T12:03:05;28.08;;;16.83;;
3307;SDS011;1666;48.898;9.182;2024-03-08T12:05:36;25.92;;;16.50;;
3307;SDS011;1666;48.898;9.182;2024-03-08T12:08:06;29.55;;;17.17;;
3307;SDS011;1666;48.898;9.182;2024-03-08T12:10:40;30.38;;;17.55;;
3307;SDS011;1666;48.898;9.182;2024-03-08T12:13:11;29.00;;;17.55;;
3307;SDS011;1666;48.898;9.182;2024-03-08T12:15:41;27.63;;;17.73;;
3307;SDS011;1666;48.898;9.182;2024-03-08T12:18:13;26.05;;;15.80;;
3307;SDS011;1666;48.898;9.182;2024-03-08T12:20:44;28.83;;;17.33;;
3307;SDS011;1666;48.898;9.182;2024-03-08T12:23:17;26.55;;;16.33;;
3307;SDS011;1666;48.898;9.182;2024-03-08T12:25:47;28.60;;;17.65;;
3307;SDS011;1666;48.898;9.182;2024-03-08T12:28:18;30.10;;;17.73;;
3307;SDS011;1666;48.898;9.182;2024-03-08T12:30:49;29.85;;;17.33;;
3307;SDS011;1666;48.898;9.182;2024-03-08T12:33:24;29.85;;;16.73;;
3307;SDS011;1666;48.898;9.182;2024-03-08T12:35:55;26.73;;;16.80;;
3307;SDS011;1666;48.898;9.182;2024-03-08T12:38:27;30.10;;;17.67;;
3307;SDS011;1666;48.898;9.182;2024-03-08T12:40:58;26.17;;;17.23;;
3307;SDS011;1666;48.898;9.182;2024-03-08T12:43:30;30.52;;;19.88;;
3307;SDS011;1666;48.898;9.182;2024-03-08T12:45:59;28.92;;;18.25;;
3307;SDS011;1666;48.898;9.182;2024-03-08T12:48:36;25.70;;;16.73;;
3307;SDS011;1666;48.898;9.182;2024-03-08T12:51:07;30.00;;;18.27;;
3307;SDS011;1666;48.898;9.182;2024-03-08T12:53:39;26.75;;;18.00;;
3307;SDS011;1666;48.898;9.182;2024-03-08T12:56:11;28.27;;;16.98;;
3307;SDS011;1666;48.898;9.182;2024-03-08T12:58:41;27.92;;;17.23;;
3307;SDS011;1666;48.898;9.182;2024-03-08T13:01:12;28.77;;;18.17;;
3307;SDS011;1666;48.898;9.182;2024-03-08T13:03:47;26.45;;;16.75;;
3307;SDS011;1666;48.898;9.182;2024-03-08T13:06:18;25.30;;;16.92;;
3307;SDS011;1666;48.898;9.182;2024-03-08T13:08:51;29.80;;;18.02;;
3307;SDS011;1666;48.898;9.182;2024-03-08T13:11:22;28.20;;;17.08;;
3307;SDS011;1666;48.898;9.182;2024-03-08T13:13:53;26.70;;;16.60;;
3307;SDS011;1666;48.898;9.182;2024-03-08T13:16:26;27.50;;;18.13;;
3307;SDS011;1666;48.898;9.182;2024-03-08T13:18:59;26.88;;;18.30;;
3307;SDS011;1666;48.898;9.182;2024-03-08T13:21:29;28.95;;;17.85;;
3307;SDS011;1666;48.898;9.182;2024-03-08T13:23:59;31.48;;;17.40;;
3307;SDS011;1666;48.898;9.182;2024-03-08T13:26:30;27.60;;;16.60;;
3307;SDS011;1666;48.898;9.182;2024-03-08T13:29:00;26.60;;;17.58;;
3307;SDS011;1666;48.898;9.182;2024-03-08T13:31:32;29.38;;;17.58;;
3307;SDS011;1666;48.898;9.182;2024-03-08T13:34:05;26.50;;;16.67;;
3307;SDS011;1666;48.898;9.182;2024-03-08T13:36:38;27.50;;;16.60;;
3307;SDS011;1666;48.898;9.182;2024-03-08T13:39:11;28.35;;;18.70;;
3307;SDS011;1666;48.898;9.182;2024-03-08T13:41:47;27.30;;;16.40;;
3307;SDS011;1666;48.898;9.182;2024-03-08T13:44:17;25.02;;;16.23;;
3307;SDS011;1666;48.898;9.182;2024-03-08T13:46:47;24.88;;;16.48;;
3307;SDS011;1666;48.898;9.182;2024-03-08T13:49:22;25.83;;;17.27;;
3307;SDS011;1666;48.898;9.182;2024-03-08T13:51:53;24.30;;;16.98;;
3307;SDS011;1666;48.898;9.182;2024-03-08T13:54:25;24.52;;;16.38;;
3307;SDS011;1666;48.898;9.182;2024-03-08T13:56:58;28.35;;;17.20;;
3307;SDS011;1666;48.898;9.182;2024-03-08T13:59:31;21.58;;;15.70;;
3307;SDS011;1666;48.898;9.182;2024-03-08T14:02:04;24.05;;;16.05;;
3307;SDS011;1666;48.898;9.182;2024-03-08T14:04:42;24.70;;;16.30;;
3307;SDS011;1666;48.898;9.182;2024-03-08T14:07:13;22.75;;;15.35;;
3307;SDS011;1666;48.898;9.182;2024-03-08T14:09:44;24.45;;;16.67;;
3307;SDS011;1666;48.898;9.182;2024-03-08T14:12:14;25.02;;;15.93;;
3307;SDS011;1666;48.898;9.182;2024-03-08T14:14:46;24.45;;;16.25;;
3307;SDS011;1666;48.898;9.182;2024-03-08T14:17:16;23.98;;;16.42;;
3307;SDS011;1666;48.898;9.182;2024-03-08T14:19:49;23.55;;;15.43;;
3307;SDS011;1666;48.898;9.182;2024-03-08T14:22:19;27.85;;;16.52;;
3307;SDS011;1666;48.898;9.182;2024-03-08T14:24:50;24.38;;;16.30;;
3307;SDS011;1666;48.898;9.182;2024-03-08T14:27:22;23.48;;;15.10;;
3307;SDS011;1666;48.898;9.182;2024-03-08T14:29:53;24.77;;;15.48;;
3307;SDS011;1666;48.898;9.182;2024-03-08T14:32:24;22.65;;;15.88;;
3307;SDS011;1666;48.898;9.182;2024-03-08T14:34:57;21.42;;;15.50;;
3307;SDS011;1666;48.898;9.182;2024-03-08T14:37:27;21.65;;;14.88;;
3307;SDS011;1666;48.898;9.182;2024-03-08T14:39:57;25.88;;;16.27;;
3307;SDS011;1666;48.898;9.182;2024-03-08T14:42:27;22.95;;;16.20;;
3307;SDS011;1666;48.898;9.182;2024-03-08T14:44:57;23.23;;;15.98;;
3307;SDS011;1666;48.898;9.182;2024-03-08T14:47:28;23.40;;;16.13;;
3307;SDS011;1666;48.898;9.182;2024-03-08T14:50:00;22.88;;;15.68;;
3307;SDS011;1666;48.898;9.182;2024-03-08T14:52:34;23.05;;;15.45;;
3307;SDS011;1666;48.898;9.182;2024-03-08T14:55:07;21.98;;;15.48;;
3307;SDS011;1666;48.898;9.182;2024-03-08T14:57:41;24.23;;;15.23;;
3307;SDS011;1666;48.898;9.182;2024-03-08T15:00:12;21.42;;;14.55;;
3307;SDS011;1666;48.898;9.182;2024-03-08T15:02:53;21.67;;;15.68;;
3307;SDS011;1666;48.898;9.182;2024-03-08T15:05:26;24.20;;;15.48;;
3307;SDS011;1666;48.898;9.182;2024-03-08T15:07:59;21.85;;;15.85;;
3307;SDS011;1666;48.898;9.182;2024-03-08T15:10:38;24.00;;;16.48;;
3307;SDS011;1666;48.898;9.182;2024-03-08T15:13:09;22.27;;;15.63;;
3307;SDS011;1666;48.898;9.182;2024-03-08T15:15:49;22.02;;;15.15;;
3307;SDS011;1666;48.898;9.182;2024-03-08T15:18:24;22.42;;;14.98;;
3307;SDS011;1666;48.898;9.182;2024-03-08T15:21:04;25.33;;;16.60;;
3307;SDS011;1666;48.898;9.182;2024-03-08T15:26:10;21.95;;;14.88;;
3307;SDS011;1666;48.898;9.182;2024-03-08T15:28:40;25.35;;;15.57;;
3307;SDS011;1666;48.898;9.182;2024-03-08T15:31:11;23.90;;;14.88;;
3307;SDS011;1666;48.898;9.182;2024-03-08T15:33:41;21.13;;;14.30;;
3307;SDS011;1666;48.898;9.182;2024-03-08T15:36:17;22.02;;;15.07;;
3307;SDS011;1666;48.898;9.182;2024-03-08T15:38:48;22.65;;;15.18;;
3307;SDS011;1666;48.898;9.182;2024-03-08T15:41:19;23.17;;;15.52;;
3307;SDS011;1666;48.898;9.182;2024-03-08T15:43:49;20.50;;;14.32;;
3307;SDS011;1666;48.898;9.182;2024-03-08T15:46:19;23.35;;;15.50;;
3307;SDS011;1666;48.898;9.182;2024-03-08T15:48:50;24.23;;;15.05;;
3307;SDS011;1666;48.898;9.182;2024-03-08T15:51:23;20.17;;;13.90;;
3307;SDS011;1666;48.898;9.182;2024-03-08T15:53:53;20.88;;;13.77;;
3307;SDS011;1666;48.898;9.182;2024-03-08T15:56:23;19.92;;;14.10;;
3307;SDS011;1666;48.898;9.182;2024-03-08T15:58:54;17.95;;;13.63;;
3307;SDS011;1666;48.898;9.182;2024-03-08T16:01:24;20.52;;;14.43;;
3307;SDS011;1666;48.898;9.182;2024-03-08T16:03:54;21.63;;;14.52;;
3307;SDS011;1666;48.898;9.182;2024-03-08T16:06:27;22.55;;;15.70;;
3307;SDS011;1666;48.898;9.182;2024-03-08T16:08:57;19.70;;;13.77;;
3307;SDS011;1666;48.898;9.182;2024-03-08T16:11:28;21.45;;;15.18;;
3307;SDS011;1666;48.898;9.182;2024-03-08T16:14:00;21.73;;;14.32;;
3307;SDS011;1666;48.898;9.182;2024-03-08T16:16:30;20.77;;;14.77;;
3307;SDS011;1666;48.898;9.182;2024-03-08T16:19:00;23.48;;;15.85;;
3307;SDS011;1666;48.898;9.182;2024-03-08T16:21:36;22.42;;;14.98;;
3307;SDS011;1666;48.898;9.182;2024-03-08T16:24:06;21.27;;;14.38;;
3307;SDS011;1666;48.898;9.182;2024-03-08T16:26:36;19.30;;;14.45;;
3307;SDS011;1666;48.898;9.182;2024-03-08T16:29:07;26.20;;;16.65;;
3307;SDS011;1666;48.898;9.182;2024-03-08T16:31:41;22.10;;;15.03;;
3307;SDS011;1666;48.898;9.182;2024-03-08T16:34:11;21.45;;;14.98;;
3307;SDS011;1666;48.898;9.182;2024-03-08T16:36:45;20.45;;;14.27;;
3307;SDS011;1666;48.898;9.182;2024-03-08T16:39:16;22.50;;;14.18;;
3307;SDS011;1666;48.898;9.182;2024-03-08T16:41:48;22.27;;;14.27;;
3307;SDS011;1666;48.898;9.182;2024-03-08T16:44:19;20.75;;;13.80;;
3307;SDS011;1666;48.898;9.182;2024-03-08T16:46:51;20.98;;;13.98;;
3307;SDS011;1666;48.898;9.182;2024-03-08T16:49:21;19.60;;;13.90;;
3307;SDS011;1666;48.898;9.182;2024-03-08T16:51:54;21.98;;;15.02;;
3307;SDS011;1666;48.898;9.182;2024-03-08T16:54:24;19.13;;;13.93;;
3307;SDS011;1666;48.898;9.182;2024-03-08T16:57:09;20.90;;;14.35;;
3307;SDS011;1666;48.898;9.182;2024-03-08T16:59:40;19.65;;;13.48;;
3307;SDS011;1666;48.898;9.182;2024-03-08T17:02:10;22.52;;;15.30;;
3307;SDS011;1666;48.898;9.182;2024-03-08T17:04:40;22.45;;;15.13;;
3307;SDS011;1666;48.898;9.182;2024-03-08T17:07:13;21.95;;;15.13;;
3307;SDS011;1666;48.898;9.182;2024-03-08T17:09:43;21.15;;;15.10;;
3307;SDS011;1666;48.898;9.182;2024-03-08T17:12:13;22.58;;;16.00;;
3307;SDS011;1666;48.898;9.182;2024-03-08T17:14:45;24.70;;;16.90;;
3307;SDS011;1666;48.898;9.182;2024-03-08T17:17:15;26.70;;;17.88;;
3307;SDS011;1666;48.898;9.182;2024-03-08T17:19:45;33.92;;;22.73;;
3307;SDS011;1666;48.898;9.182;2024-03-08T17:22:19;25.15;;;17.35;;
3307;SDS011;1666;48.898;9.182;2024-03-08T17:24:51;23.48;;;15.80;;
3307;SDS011;1666;48.898;9.182;2024-03-08T17:27:21;23.92;;;15.57;;
3307;SDS011;1666;48.898;9.182;2024-03-08T17:29:52;23.30;;;15.75;;
3307;SDS011;1666;48.898;9.182;2024-03-08T17:32:23;24.83;;;15.57;;
3307;SDS011;1666;48.898;9.182;2024-03-08T17:34:53;23.67;;;15.27;;
3307;SDS011;1666;48.898;9.182;2024-03-08T17:37:26;22.85;;;15.55;;
3307;SDS011;1666;48.898;9.182;2024-03-08T17:39:56;22.80;;;14.40;;
3307;SDS011;1666;48.898;9.182;2024-03-08T17:42:26;23.83;;;15.63;;
3307;SDS011;1666;48.898;9.182;2024-03-08T17:44:58;22.60;;;15.40;;
3307;SDS011;1666;48.898;9.182;2024-03-08T17:47:28;26.40;;;16.75;;
3307;SDS011;1666;48.898;9.182;2024-03-08T17:49:58;24.00;;;16.80;;
3307;SDS011;1666;48.898;9.182;2024-03-08T17:52:34;23.67;;;15.73;;
3307;SDS011;1666;48.898;9.182;2024-03-08T17:55:06;27.98;;;15.57;;
3307;SDS011;1666;48.898;9.182;2024-03-08T17:57:41;24.08;;;15.40;;
3307;SDS011;1666;48.898;9.182;2024-03-08T18:00:12;21.33;;;13.93;;
3307;SDS011;1666;48.898;9.182;2024-03-08T18:02:52;22.73;;;14.38;;
3307;SDS011;1666;48.898;9.182;2024-03-08T18:05:24;24.10;;;14.65;;
3307;SDS011;1666;48.898;9.182;2024-03-08T18:07:59;21.55;;;15.13;;
3307;SDS011;1666;48.898;9.182;2024-03-08T18:10:30;21.50;;;14.57;;
3307;SDS011;1666;48.898;9.182;2024-03-08T18:13:01;24.80;;;15.52;;
3307;SDS011;1666;48.898;9.182;2024-03-08T18:15:38;24.55;;;15.13;;
3307;SDS011;1666;48.898;9.182;2024-03-08T18:18:08;21.52;;;13.68;;
3307;SDS011;1666;48.898;9.182;2024-03-08T18:20:39;26.70;;;15.93;;
3307;SDS011;1666;48.898;9.182;2024-03-08T18:23:18;21.73;;;15.25;;
3307;SDS011;1666;48.898;9.182;2024-03-08T18:25:49;23.93;;;15.90;;
3307;SDS011;1666;48.898;9.182;2024-03-08T18:28:21;23.92;;;14.57;;
3307;SDS011;1666;48.898;9.182;2024-03-08T18:30:53;22.20;;;14.15;;
3307;SDS011;1666;48.898;9.182;2024-03-08T18:33:23;20.73;;;13.65;;
3307;SDS011;1666;48.898;9.182;2024-03-08T18:35:54;22.48;;;14.82;;
3307;SDS011;1666;48.898;9.182;2024-03-08T18:38:28;23.73;;;16.05;;
3307;SDS011;1666;48.898;9.182;2024-03-08T18:40:58;21.58;;;14.13;;
3307;SDS011;1666;48.898;9.182;2024-03-08T18:43:28;22.63;;;15.70;;
3307;SDS011;1666;48.898;9.182;2024-03-08T18:46:00;20.63;;;13.73;;
3307;SDS011;1666;48.898;9.182;2024-03-08T18:48:31;19.95;;;12.82;;
3307;SDS011;1666;48.898;9.182;2024-03-08T18:51:02;18.08;;;13.10;;
3307;SDS011;1666;48.898;9.182;2024-03-08T18:53:35;19.33;;;13.02;;
3307;SDS011;1666;48.898;9.182;2024-03-08T18:56:08;21.35;;;12.77;;
3307;SDS011;1666;48.898;9.182;2024-03-08T18:58:41;18.42;;;12.20;;
3307;SDS011;1666;48.898;9.182;2024-03-08T19:01:12;18.80;;;12.45;;
3307;SDS011;1666;48.898;9.182;2024-03-08T19:03:47;17.60;;;11.15;;
3307;SDS011;1666;48.898;9.182;2024-03-08T19:06:18;20.83;;;13.98;;
3307;SDS011;1666;48.898;9.182;2024-03-08T19:08:50;19.00;;;12.18;;
3307;SDS011;1666;48.898;9.182;2024-03-08T19:11:21;19.63;;;12.60;;
3307;SDS011;1666;48.898;9.182;2024-03-08T19:13:53;21.67;;;13.25;;
3307;SDS011;1666;48.898;9.182;2024-03-08T19:16:23;20.30;;;13.07;;
3307;SDS011;1666;48.898;9.182;2024-03-08T19:18:53;20.15;;;13.40;;
3307;SDS011;1666;48.898;9.182;2024-03-08T19:21:23;18.77;;;11.38;;
3307;SDS011;1666;48.898;9.182;2024-03-08T19:24:01;18.67;;;13.10;;
3307;SDS011;1666;48.898;9.182;2024-03-08T19:26:31;21.35;;;12.60;;
3307;SDS011;1666;48.898;9.182;2024-03-08T19:29:01;19.52;;;12.27;;
3307;SDS011;1666;48.898;9.182;2024-03-08T19:31:31;18.73;;;12.73;;
3307;SDS011;1666;48.898;9.182;2024-03-08T19:34:01;18.25;;;12.23;;
3307;SDS011;1666;48.898;9.182;2024-03-08T19:36:34;17.08;;;10.90;;
3307;SDS011;1666;48.898;9.182;2024-03-08T19:39:08;16.95;;;10.52;;
3307;SDS011;1666;48.898;9.182;2024-03-08T19:41:39;18.13;;;11.63;;
3307;SDS011;1666;48.898;9.182;2024-03-08T19:44:09;17.15;;;11.10;;
3307;SDS011;1666;48.898;9.182;2024-03-08T19:46:41;20.10;;;12.02;;
3307;SDS011;1666;48.898;9.182;2024-03-08T19:49:11;19.35;;;12.07;;
3307;SDS011;1666;48.898;9.182;2024-03-08T19:51:43;21.20;;;14.40;;
3307;SDS011;1666;48.898;9.182;2024-03-08T19:54:17;16.75;;;11.40;;
3307;SDS011;1666;48.898;9.182;2024-03-08T19:56:47;21.27;;;11.20;;
3307;SDS011;1666;48.898;9.182;2024-03-08T19:59:18;17.33;;;11.70;;
3307;SDS011;1666;48.898;9.182;2024-03-08T20:01:50;20.98;;;13.93;;
3307;SDS011;1666;48.898;9.182;2024-03-08T20:04:22;17.83;;;11.32;;
3307;SDS011;1666;48.898;9.182;2024-03-08T20:06:53;15.60;;;10.65;;
3307;SDS011;1666;48.898;9.182;2024-03-08T20:09:26;16.42;;;10.93;;
3307;SDS011;1666;48.898;9.182;2024-03-08T20:11:56;16.17;;;11.48;;
3307;SDS011;1666;48.898;9.182;2024-03-08T20:14:26;18.20;;;11.77;;
3307;SDS011;1666;48.898;9.182;2024-03-08T20:16:58;18.80;;;11.75;;
3307;SDS011;1666;48.898;9.182;2024-03-08T20:19:30;20.60;;;12.00;;
3307;SDS011;1666;48.898;9.182;2024-03-08T20:22:00;17.50;;;12.00;;
3307;SDS011;1666;48.898;9.182;2024-03-08T20:24:33;22.60;;;12.48;;
3307;SDS011;1666;48.898;9.182;2024-03-08T20:27:03;17.60;;;11.50;;
3307;SDS011;1666;48.898;9.182;2024-03-08T20:29:33;18.00;;;11.55;;
3307;SDS011;1666;48.898;9.182;2024-03-08T20:32:03;16.63;;;11.43;;
3307;SDS011;1666;48.898;9.182;2024-03-08T20:34:34;18.85;;;12.13;;
3307;SDS011;1666;48.898;9.182;2024-03-08T20:37:05;16.33;;;10.88;;
3307;SDS011;1666;48.898;9.182;2024-03-08T20:39:38;18.80;;;12.70;;
3307;SDS011;1666;48.898;9.182;2024-03-08T20:42:09;20.40;;;11.85;;
3307;SDS011;1666;48.898;9.182;2024-03-08T20:44:39;19.75;;;11.98;;
3307;SDS011;1666;48.898;9.182;2024-03-08T20:47:09;17.88;;;11.60;;
3307;SDS011;1666;48.898;9.182;2024-03-08T20:49:39;17.02;;;11.73;;
3307;SDS011;1666;48.898;9.182;2024-03-08T20:52:10;16.90;;;10.60;;
3307;SDS011;1666;48.898;9.182;2024-03-08T20:54:42;17.17;;;11.88;;
3307;SDS011;1666;48.898;9.182;2024-03-08T20:57:14;17.85;;;11.90;;
3307;SDS011;1666;48.898;9.182;2024-03-08T20:59:44;20.77;;;13.18;;
3307;SDS011;1666;48.898;9.182;2024-03-08T21:02:14;24.83;;;12.73;;
3307;SDS011;1666;48.898;9.182;2024-03-08T21:04:43;19.67;;;12.13;;
3307;SDS011;1666;48.898;9.182;2024-03-08T21:07:15;17.50;;;11.98;;
3307;SDS011;1666;48.898;9.182;2024-03-08T21:09:48;19.05;;;11.88;;
3307;SDS011;1666;48.898;9.182;2024-03-08T21:12:19;16.98;;;10.63;;
3307;SDS011;1666;48.898;9.182;2024-03-08T21:14:50;22.00;;;12.50;;
3307;SDS011;1666;48.898;9.182;2024-03-08T21:17:21;20.55;;;12.13;;
3307;SDS011;1666;48.898;9.182;2024-03-08T21:19:51;23.35;;;13.18;;
3307;SDS011;1666;48.898;9.182;2024-03-08T21:22:23;19.63;;;12.05;;
3307;SDS011;1666;48.898;9.182;2024-03-08T21:24:56;19.88;;;12.07;;
3307;SDS011;1666;48.898;9.182;2024-03-08T21:27:26;19.23;;;12.00;;
3307;SDS011;1666;48.898;9.182;2024-03-08T21:29:57;18.10;;;11.10;;
3307;SDS011;1666;48.898;9.182;2024-03-08T21:32:27;18.02;;;11.57;;
3307;SDS011;1666;48.898;9.182;2024-03-08T21:34:57;18.98;;;12.02;;
3307;SDS011;1666;48.898;9.182;2024-03-08T21:37:27;18.52;;;12.25;;
3307;SDS011;1666;48.898;9.182;2024-03-08T21:40:00;17.70;;;11.43;;
3307;SDS011;1666;48.898;9.182;2024-03-08T21:42:37;20.15;;;11.43;;
3307;SDS011;1666;48.898;9.182;2024-03-08T21:45:09;19.35;;;11.65;;
3307;SDS011;1666;48.898;9.182;2024-03-08T21:47:43;20.83;;;12.48;;
3307;SDS011;1666;48.898;9.182;2024-03-08T21:50:13;19.80;;;11.85;;
3307;SDS011;1666;48.898;9.182;2024-03-08T21:52:44;18.50;;;11.60;;
3307;SDS011;1666;48.898;9.182;2024-03-08T21:55:18;18.13;;;11.50;;
3307;SDS011;1666;48.898;9.182;2024-03-08T21:57:48;18.20;;;10.82;;
3307;SDS011;1666;48.898;9.182;2024-03-08T22:00:19;16.40;;;10.60;;
3307;SDS011;1666;48.898;9.182;2024-03-08T22:02:50;17.60;;;10.98;;
3307;SDS011;1666;48.898;9.182;2024-03-08T22:05:20;17.88;;;11.18;;
3307;SDS011;1666;48.898;9.182;2024-03-08T22:07:52;22.60;;;13.23;;
3307;SDS011;1666;48.898;9.182;2024-03-08T22:10:25;20.48;;;12.27;;
3307;SDS011;1666;48.898;9.182;2024-03-08T22:12:56;17.67;;;11.30;;
3307;SDS011;1666;48.898;9.182;2024-03-08T22:15:27;18.88;;;11.30;;
3307;SDS011;1666;48.898;9.182;2024-03-08T22:17:57;21.25;;;12.57;;
3307;SDS011;1666;48.898;9.182;2024-03-08T22:20:27;18.92;;;12.10;;
3307;SDS011;1666;48.898;9.182;2024-03-08T22:22:59;23.58;;;13.52;;
3307;SDS011;1666;48.898;9.182;2024-03-08T22:25:35;24.15;;;14.63;;
3307;SDS011;1666;48.898;9.182;2024-03-08T22:28:09;22.95;;;14.30;;
3307;SDS011;1666;48.898;9.182;2024-03-08T22:30:40;22.40;;;13.68;;
3307;SDS011;1666;48.898;9.182;2024-03-08T22:33:10;23.85;;;12.80;;
3307;SDS011;1666;48.898;9.182;2024-03-08T22:35:40;20.67;;;12.55;;
3307;SDS011;1666;48.898;9.182;2024-03-08T22:38:10;20.08;;;12.50;;
3307;SDS011;1666;48.898;9.182;2024-03-08T22:40:43;20.63;;;12.68;;
3307;SDS011;1666;48.898;9.182;2024-03-08T22:43:15;21.80;;;13.27;;
3307;SDS011;1666;48.898;9.182;2024-03-08T22:45:45;24.10;;;14.52;;
3307;SDS011;1666;48.898;9.182;2024-03-08T22:48:16;23.92;;;13.95;;
3307;SDS011;1666;48.898;9.182;2024-03-08T22:50:46;21.33;;;12.85;;
3307;SDS011;1666;48.898;9.182;2024-03-08T22:53:16;19.75;;;13.30;;
3307;SDS011;1666;48.898;9.182;2024-03-08T22:55:50;20.80;;;13.05;;
3307;SDS011;1666;48.898;9.182;2024-03-08T22:58:21;21.45;;;13.00;;
3307;SDS011;1666;48.898;9.182;2024-03-08T23:00:52;20.33;;;11.88;;
3307;SDS011;1666;48.898;9.182;2024-03-08T23:03:28;20.40;;;12.77;;
3307;SDS011;1666;48.898;9.182;2024-03-08T23:06:02;22.25;;;12.55;;
3307;SDS011;1666;48.898;9.182;2024-03-08T23:08:39;20.48;;;12.60;;
3307;SDS011;1666;48.898;9.182;2024-03-08T23:11:14;19.30;;;12.32;;
3307;SDS011;1666;48.898;9.182;2024-03-08T23:13:44;20.83;;;13.85;;
3307;SDS011;1666;48.898;9.182;2024-03-08T23:16:15;21.08;;;13.27;;
3307;SDS011;1666;48.898;9.182;2024-03-08T23:18:47;21.00;;;12.93;;
3307;SDS011;1666;48.898;9.182;2024-03-08T23:21:18;21.02;;;13.50;;
3307;SDS011;1666;48.898;9.182;2024-03-08T23:23:48;22.10;;;13.02;;
3307;SDS011;1666;48.898;9.182;2024-03-08T23:26:21;21.67;;;13.30;;
3307;SDS011;1666;48.898;9.182;2024-03-08T23:28:54;19.65;;;12.00;;
3307;SDS011;1666;48.898;9.182;2024-03-08T23:31:25;21.42;;;13.18;;
3307;SDS011;1666;48.898;9.182;2024-03-08T23:33:59;20.65;;;13.63;;
3307;SDS011;1666;48.898;9.182;2024-03-08T23:36:29;21.60;;;13.32;;
3307;SDS011;1666;48.898;9.182;2024-03-08T23:39:01;18.40;;;12.13;;
3307;SDS011;1666;48.898;9.182;2024-03-08T23:41:38;22.00;;;12.07;;
3307;SDS011;1666;48.898;9.182;2024-03-08T23:44:09;21.63;;;11.25;;
3307;SDS011;1666;48.898;9.182;2024-03-08T23:46:39;18.45;;;11.30;;
3307;SDS011;1666;48.898;9.182;2024-03-08T23:49:13;17.95;;;11.52;;
3307;SDS011;1666;48.898;9.182;2024-03-08T23:51:44;20.27;;;12.18;;
3307;SDS011;1666;48.898;9.182;2024-03-08T23:54:15;19.30;;;12.45;;
3307;SDS011;1666;48.898;9.182;2024-03-08T23:56:51;19.08;;;11.80;;
3307;SDS011;1666;48.898;9.182;2024-03-08T23:59:21;20.10;;;12.32;;
